sensor_id;sensor_type;location;lat;lon;timestamp;temperature;humidity
13115;DHT22;6623;52.120;8.660;2023-06-04T00:01:39;22.60;43.40
13115;DHT22;6623;52.120;8.660;2023-06-04T00:04:05;22.60;43.40
13115;DHT22;6623;52.120;8.660;2023-06-04T00:06:30;22.60;43.40
13115;DHT22;6623;52.120;8.660;2023-06-04T00:08:56;22.60;43.40
13115;DHT22;6623;52.120;8.660;2023-06-04T00:11:21;22.60;43.40
13115;DHT22;6623;52.120;8.660;2023-06-04T00:13:47;22.60;43.40
13115;DHT22;6623;52.120;8.660;2023-06-04T00:16:13;22.60;43.30
13115;DHT22;6623;52.120;8.660;2023-06-04T00:18:38;22.60;43.40
13115;DHT22;6623;52.120;8.660;2023-06-04T00:21:03;22.60;43.30
13115;DHT22;6623;52.120;8.660;2023-06-04T00:23:29;22.60;43.30
13115;DHT22;6623;52.120;8.660;2023-06-04T00:25:54;22.60;43.40
13115;DHT22;6623;52.120;8.660;2023-06-04T00:28:20;22.60;43.30
13115;DHT22;6623;52.120;8.660;2023-06-04T00:30:47;22.60;43.40
13115;DHT22;6623;52.120;8.660;2023-06-04T00:33:12;22.60;43.30
13115;DHT22;6623;52.120;8.660;2023-06-04T00:35:37;22.60;43.30
13115;DHT22;6623;52.120;8.660;2023-06-04T00:38:03;22.60;43.30
13115;DHT22;6623;52.120;8.660;2023-06-04T00:40:28;22.60;43.30
13115;DHT22;6623;52.120;8.660;2023-06-04T00:42:54;22.60;43.30
13115;DHT22;6623;52.120;8.660;2023-06-04T00:45:21;22.60;43.30
13115;DHT22;6623;52.120;8.660;2023-06-04T00:47:46;22.60;43.30
13115;DHT22;6623;52.120;8.660;2023-06-04T00:50:12;22.60;43.30
13115;DHT22;6623;52.120;8.660;2023-06-04T00:52:38;22.60;43.30
13115;DHT22;6623;52.120;8.660;2023-06-04T00:55:04;22.60;44.00
13115;DHT22;6623;52.120;8.660;2023-06-04T00:57:30;22.60;43.30
13115;DHT22;6623;52.120;8.660;2023-06-04T00:59:55;22.60;43.30
13115;DHT22;6623;52.120;8.660;2023-06-04T01:02:22;22.60;43.30
13115;DHT22;6623;52.120;8.660;2023-06-04T01:07:38;22.60;43.30
13115;DHT22;6623;52.120;8.660;2023-06-04T01:10:06;22.60;43.30
13115;DHT22;6623;52.120;8.660;2023-06-04T01:12:32;22.60;43.30
13115;DHT22;6623;52.120;8.660;2023-06-04T01:14:57;22.60;43.30
13115;DHT22;6623;52.120;8.660;2023-06-04T01:17:29;22.60;43.30
13115;DHT22;6623;52.120;8.660;2023-06-04T01:20:31;22.60;43.40
13115;DHT22;6623;52.120;8.660;2023-06-04T01:23:25;22.60;43.30
13115;DHT22;6623;52.120;8.660;2023-06-04T01:26:00;22.60;43.30
13115;DHT22;6623;52.120;8.660;2023-06-04T01:28:28;22.60;43.30
13115;DHT22;6623;52.120;8.660;2023-06-04T01:30:55;22.50;43.30
13115;DHT22;6623;52.120;8.660;2023-06-04T01:33:22;22.60;43.30
13115;DHT22;6623;52.120;8.660;2023-06-04T01:35:48;22.60;43.30
13115;DHT22;6623;52.120;8.660;2023-06-04T01:38:14;22.60;43.30
13115;DHT22;6623;52.120;8.660;2023-06-04T01:40:39;22.60;43.30
13115;DHT22;6623;52.120;8.660;2023-06-04T01:43:06;22.60;43.30
13115;DHT22;6623;52.120;8.660;2023-06-04T01:45:32;22.60;43.30
13115;DHT22;6623;52.120;8.660;2023-06-04T01:48:01;22.60;43.20
13115;DHT22;6623;52.120;8.660;2023-06-04T01:50:27;22.60;43.60
13115;DHT22;6623;52.120;8.660;2023-06-04T01:52:53;22.60;43.30
13115;DHT22;6623;52.120;8.660;2023-06-04T01:55:18;22.60;43.90
13115;DHT22;6623;52.120;8.660;2023-06-04T01:57:45;22.60;43.20
13115;DHT22;6623;52.120;8.660;2023-06-04T02:00:11;22.60;43.20
13115;DHT22;6623;52.120;8.660;2023-06-04T02:02:37;22.60;43.20
13115;DHT22;6623;52.120;8.660;2023-06-04T02:05:06;22.60;43.20
13115;DHT22;6623;52.120;8.660;2023-06-04T02:07:34;22.60;43.20
13115;DHT22;6623;52.120;8.660;2023-06-04T02:10:00;22.60;43.20
13115;DHT22;6623;52.120;8.660;2023-06-04T02:12:25;22.60;43.20
13115;DHT22;6623;52.120;8.660;2023-06-04T02:14:51;22.60;43.20
13115;DHT22;6623;52.120;8.660;2023-06-04T02:17:16;22.60;43.20
13115;DHT22;6623;52.120;8.660;2023-06-04T02:19:43;22.60;43.20
13115;DHT22;6623;52.120;8.660;2023-06-04T02:22:17;22.60;43.20
13115;DHT22;6623;52.120;8.660;2023-06-04T02:24:43;22.60;43.20
13115;DHT22;6623;52.120;8.660;2023-06-04T02:27:09;22.60;43.20
13115;DHT22;6623;52.120;8.660;2023-06-04T02:29:36;22.60;43.20
13115;DHT22;6623;52.120;8.660;2023-06-04T02:32:02;22.60;43.20
13115;DHT22;6623;52.120;8.660;2023-06-04T02:34:27;22.60;43.20
13115;DHT22;6623;52.120;8.660;2023-06-04T02:36:53;22.50;43.20
13115;DHT22;6623;52.120;8.660;2023-06-04T02:39:19;22.60;43.20
13115;DHT22;6623;52.120;8.660;2023-06-04T02:41:45;22.60;43.20
13115;DHT22;6623;52.120;8.660;2023-06-04T02:44:10;22.60;43.20
13115;DHT22;6623;52.120;8.660;2023-06-04T02:46:37;22.60;43.20
13115;DHT22;6623;52.120;8.660;2023-06-04T02:49:03;22.60;43.20
13115;DHT22;6623;52.120;8.660;2023-06-04T02:51:28;22.60;43.20
13115;DHT22;6623;52.120;8.660;2023-06-04T02:53:54;22.60;43.20
13115;DHT22;6623;52.120;8.660;2023-06-04T02:56:20;22.60;43.20
13115;DHT22;6623;52.120;8.660;2023-06-04T02:58:52;22.60;43.20
13115;DHT22;6623;52.120;8.660;2023-06-04T03:01:23;22.60;43.20
13115;DHT22;6623;52.120;8.660;2023-06-04T03:03:49;22.60;43.20
13115;DHT22;6623;52.120;8.660;2023-06-04T03:06:16;22.50;43.10
13115;DHT22;6623;52.120;8.660;2023-06-04T03:08:42;22.50;43.10
13115;DHT22;6623;52.120;8.660;2023-06-04T03:11:08;22.60;43.20
13115;DHT22;6623;52.120;8.660;2023-06-04T03:13:35;22.60;43.10
13115;DHT22;6623;52.120;8.660;2023-06-04T03:16:01;22.60;43.10
13115;DHT22;6623;52.120;8.660;2023-06-04T03:18:28;22.60;43.20
13115;DHT22;6623;52.120;8.660;2023-06-04T03:20:54;22.60;43.10
13115;DHT22;6623;52.120;8.660;2023-06-04T03:23:20;22.60;43.10
13115;DHT22;6623;52.120;8.660;2023-06-04T03:25:45;22.50;43.10
13115;DHT22;6623;52.120;8.660;2023-06-04T03:28:11;22.50;43.10
13115;DHT22;6623;52.120;8.660;2023-06-04T03:30:37;22.50;43.10
13115;DHT22;6623;52.120;8.660;2023-06-04T03:33:02;22.50;43.00
13115;DHT22;6623;52.120;8.660;2023-06-04T03:35:28;22.50;43.00
13115;DHT22;6623;52.120;8.660;2023-06-04T03:37:54;22.60;43.10
13115;DHT22;6623;52.120;8.660;2023-06-04T03:40:19;22.50;43.10
13115;DHT22;6623;52.120;8.660;2023-06-04T03:42:45;22.60;43.10
13115;DHT22;6623;52.120;8.660;2023-06-04T03:45:10;22.50;43.10
13115;DHT22;6623;52.120;8.660;2023-06-04T03:47:38;22.50;43.00
13115;DHT22;6623;52.120;8.660;2023-06-04T03:50:04;22.50;43.10
13115;DHT22;6623;52.120;8.660;2023-06-04T03:52:29;22.50;43.70
13115;DHT22;6623;52.120;8.660;2023-06-04T03:54:55;22.50;43.10
13115;DHT22;6623;52.120;8.660;2023-06-04T03:57:20;22.50;43.00
13115;DHT22;6623;52.120;8.660;2023-06-04T03:59:46;22.50;43.00
13115;DHT22;6623;52.120;8.660;2023-06-04T04:02:11;22.50;43.00
13115;DHT22;6623;52.120;8.660;2023-06-04T04:04:37;22.50;43.00
13115;DHT22;6623;52.120;8.660;2023-06-04T04:07:02;22.50;43.10
13115;DHT22;6623;52.120;8.660;2023-06-04T04:09:28;22.50;43.10
13115;DHT22;6623;52.120;8.660;2023-06-04T04:11:53;22.50;43.10
13115;DHT22;6623;52.120;8.660;2023-06-04T04:14:19;22.50;43.00
13115;DHT22;6623;52.120;8.660;2023-06-04T04:16:44;22.50;43.00
13115;DHT22;6623;52.120;8.660;2023-06-04T04:19:10;22.50;43.00
13115;DHT22;6623;52.120;8.660;2023-06-04T04:21:36;22.50;43.10
13115;DHT22;6623;52.120;8.660;2023-06-04T04:24:03;22.50;43.00
13115;DHT22;6623;52.120;8.660;2023-06-04T04:26:28;22.50;43.00
13115;DHT22;6623;52.120;8.660;2023-06-04T04:28:54;22.50;43.00
13115;DHT22;6623;52.120;8.660;2023-06-04T04:31:32;22.50;43.00
13115;DHT22;6623;52.120;8.660;2023-06-04T04:34:03;22.50;43.00
13115;DHT22;6623;52.120;8.660;2023-06-04T04:36:33;22.50;43.00
13115;DHT22;6623;52.120;8.660;2023-06-04T04:39:01;22.50;43.00
13115;DHT22;6623;52.120;8.660;2023-06-04T04:41:27;22.50;43.00
13115;DHT22;6623;52.120;8.660;2023-06-04T04:43:53;22.50;43.00
13115;DHT22;6623;52.120;8.660;2023-06-04T04:46:19;22.50;43.00
13115;DHT22;6623;52.120;8.660;2023-06-04T04:48:44;22.50;43.00
13115;DHT22;6623;52.120;8.660;2023-06-04T04:51:10;22.50;43.00
13115;DHT22;6623;52.120;8.660;2023-06-04T04:53:35;22.50;43.00
13115;DHT22;6623;52.120;8.660;2023-06-04T04:56:01;22.50;43.00
13115;DHT22;6623;52.120;8.660;2023-06-04T04:58:26;22.50;43.00
13115;DHT22;6623;52.120;8.660;2023-06-04T05:00:52;22.50;43.00
13115;DHT22;6623;52.120;8.660;2023-06-04T05:03:17;22.50;43.00
13115;DHT22;6623;52.120;8.660;2023-06-04T05:05:43;22.50;43.00
13115;DHT22;6623;52.120;8.660;2023-06-04T05:08:09;22.50;43.00
13115;DHT22;6623;52.120;8.660;2023-06-04T05:10:34;22.50;43.00
13115;DHT22;6623;52.120;8.660;2023-06-04T05:13:01;22.50;43.00
13115;DHT22;6623;52.120;8.660;2023-06-04T05:15:27;22.50;43.00
13115;DHT22;6623;52.120;8.660;2023-06-04T05:17:53;22.50;43.00
13115;DHT22;6623;52.120;8.660;2023-06-04T05:20:21;22.50;42.90
13115;DHT22;6623;52.120;8.660;2023-06-04T05:22:48;22.50;43.00
13115;DHT22;6623;52.120;8.660;2023-06-04T05:25:14;22.50;43.00
13115;DHT22;6623;52.120;8.660;2023-06-04T05:27:40;22.50;43.00
13115;DHT22;6623;52.120;8.660;2023-06-04T05:30:06;22.50;43.00
13115;DHT22;6623;52.120;8.660;2023-06-04T05:32:32;22.50;42.90
13115;DHT22;6623;52.120;8.660;2023-06-04T05:34:58;22.50;42.90
13115;DHT22;6623;52.120;8.660;2023-06-04T05:37:27;22.50;42.90
13115;DHT22;6623;52.120;8.660;2023-06-04T05:39:54;22.50;43.00
13115;DHT22;6623;52.120;8.660;2023-06-04T05:42:20;22.50;43.00
13115;DHT22;6623;52.120;8.660;2023-06-04T05:44:46;22.50;43.00
13115;DHT22;6623;52.120;8.660;2023-06-04T05:47:11;22.50;42.90
13115;DHT22;6623;52.120;8.660;2023-06-04T05:49:37;22.50;43.00
13115;DHT22;6623;52.120;8.660;2023-06-04T05:52:02;22.50;43.00
13115;DHT22;6623;52.120;8.660;2023-06-04T05:54:29;22.50;43.00
13115;DHT22;6623;52.120;8.660;2023-06-04T05:56:55;22.50;42.90
13115;DHT22;6623;52.120;8.660;2023-06-04T05:59:21;22.50;42.90
13115;DHT22;6623;52.120;8.660;2023-06-04T06:01:46;22.50;43.00
13115;DHT22;6623;52.120;8.660;2023-06-04T06:04:13;22.50;43.00
13115;DHT22;6623;52.120;8.660;2023-06-04T06:06:38;22.40;42.90
13115;DHT22;6623;52.120;8.660;2023-06-04T06:09:04;22.50;43.00
13115;DHT22;6623;52.120;8.660;2023-06-04T06:11:30;22.50;43.10
13115;DHT22;6623;52.120;8.660;2023-06-04T06:13:56;22.50;43.00
13115;DHT22;6623;52.120;8.660;2023-06-04T06:16:21;22.40;43.00
13115;DHT22;6623;52.120;8.660;2023-06-04T06:18:47;22.40;43.00
13115;DHT22;6623;52.120;8.660;2023-06-04T06:21:12;22.40;43.00
13115;DHT22;6623;52.120;8.660;2023-06-04T06:23:38;22.40;43.00
13115;DHT22;6623;52.120;8.660;2023-06-04T06:26:03;22.40;43.00
13115;DHT22;6623;52.120;8.660;2023-06-04T06:28:33;22.40;43.00
13115;DHT22;6623;52.120;8.660;2023-06-04T06:30:59;22.40;43.10
13115;DHT22;6623;52.120;8.660;2023-06-04T06:33:24;22.40;43.10
13115;DHT22;6623;52.120;8.660;2023-06-04T06:35:50;22.40;43.00
13115;DHT22;6623;52.120;8.660;2023-06-04T06:38:16;22.40;43.00
13115;DHT22;6623;52.120;8.660;2023-06-04T06:40:41;22.40;43.10
13115;DHT22;6623;52.120;8.660;2023-06-04T06:43:07;22.40;43.10
13115;DHT22;6623;52.120;8.660;2023-06-04T06:45:32;22.40;43.10
13115;DHT22;6623;52.120;8.660;2023-06-04T06:47:58;22.40;43.10
13115;DHT22;6623;52.120;8.660;2023-06-04T06:50:23;22.40;43.10
13115;DHT22;6623;52.120;8.660;2023-06-04T06:52:49;22.40;43.10
13115;DHT22;6623;52.120;8.660;2023-06-04T06:55:14;22.40;43.10
13115;DHT22;6623;52.120;8.660;2023-06-04T06:57:40;22.40;43.10
13115;DHT22;6623;52.120;8.660;2023-06-04T07:00:06;22.40;43.10
13115;DHT22;6623;52.120;8.660;2023-06-04T07:02:32;22.40;43.10
13115;DHT22;6623;52.120;8.660;2023-06-04T07:04:57;22.40;43.10
13115;DHT22;6623;52.120;8.660;2023-06-04T07:07:23;22.40;43.10
13115;DHT22;6623;52.120;8.660;2023-06-04T07:09:49;22.40;43.10
13115;DHT22;6623;52.120;8.660;2023-06-04T07:12:14;22.40;43.10
13115;DHT22;6623;52.120;8.660;2023-06-04T07:14:40;22.40;43.10
13115;DHT22;6623;52.120;8.660;2023-06-04T07:17:05;22.40;43.10
13115;DHT22;6623;52.120;8.660;2023-06-04T07:19:31;22.40;43.10
13115;DHT22;6623;52.120;8.660;2023-06-04T07:21:57;22.40;43.10
13115;DHT22;6623;52.120;8.660;2023-06-04T07:24:22;22.40;43.10
13115;DHT22;6623;52.120;8.660;2023-06-04T07:26:48;22.40;43.10
13115;DHT22;6623;52.120;8.660;2023-06-04T07:29:13;22.40;43.10
13115;DHT22;6623;52.120;8.660;2023-06-04T07:31:40;22.40;43.10
13115;DHT22;6623;52.120;8.660;2023-06-04T07:34:05;22.40;43.10
13115;DHT22;6623;52.120;8.660;2023-06-04T07:36:31;22.40;43.10
13115;DHT22;6623;52.120;8.660;2023-06-04T07:38:58;22.40;43.10
13115;DHT22;6623;52.120;8.660;2023-06-04T07:41:24;22.40;43.10
13115;DHT22;6623;52.120;8.660;2023-06-04T07:43:51;22.40;43.10
13115;DHT22;6623;52.120;8.660;2023-06-04T07:46:17;22.40;43.10
13115;DHT22;6623;52.120;8.660;2023-06-04T07:48:44;22.40;43.10
13115;DHT22;6623;52.120;8.660;2023-06-04T07:51:10;22.40;43.10
13115;DHT22;6623;52.120;8.660;2023-06-04T07:53:37;22.40;43.10
13115;DHT22;6623;52.120;8.660;2023-06-04T07:56:03;22.40;43.10
13115;DHT22;6623;52.120;8.660;2023-06-04T07:58:29;22.40;43.10
13115;DHT22;6623;52.120;8.660;2023-06-04T08:00:55;22.40;43.10
13115;DHT22;6623;52.120;8.660;2023-06-04T08:03:21;22.40;43.10
13115;DHT22;6623;52.120;8.660;2023-06-04T08:05:47;22.40;43.10
13115;DHT22;6623;52.120;8.660;2023-06-04T08:08:12;22.40;43.10
13115;DHT22;6623;52.120;8.660;2023-06-04T08:10:41;22.40;43.10
13115;DHT22;6623;52.120;8.660;2023-06-04T08:13:07;22.40;43.10
13115;DHT22;6623;52.120;8.660;2023-06-04T08:15:33;22.40;43.10
13115;DHT22;6623;52.120;8.660;2023-06-04T08:17:59;22.40;43.10
13115;DHT22;6623;52.120;8.660;2023-06-04T08:20:25;22.40;43.10
13115;DHT22;6623;52.120;8.660;2023-06-04T08:22:51;22.40;43.10
13115;DHT22;6623;52.120;8.660;2023-06-04T08:25:16;22.40;43.10
13115;DHT22;6623;52.120;8.660;2023-06-04T08:27:42;22.50;43.80
13115;DHT22;6623;52.120;8.660;2023-06-04T08:30:08;22.40;43.10
13115;DHT22;6623;52.120;8.660;2023-06-04T08:32:34;22.40;43.20
13115;DHT22;6623;52.120;8.660;2023-06-04T08:35:00;22.40;43.10
13115;DHT22;6623;52.120;8.660;2023-06-04T08:37:25;22.40;43.10
13115;DHT22;6623;52.120;8.660;2023-06-04T08:39:51;22.40;43.20
13115;DHT22;6623;52.120;8.660;2023-06-04T08:42:30;22.40;43.10
13115;DHT22;6623;52.120;8.660;2023-06-04T08:44:58;22.40;43.20
13115;DHT22;6623;52.120;8.660;2023-06-04T08:47:25;22.40;43.20
13115;DHT22;6623;52.120;8.660;2023-06-04T08:49:57;22.40;43.20
13115;DHT22;6623;52.120;8.660;2023-06-04T08:52:24;22.40;43.20
13115;DHT22;6623;52.120;8.660;2023-06-04T08:54:51;22.40;43.20
13115;DHT22;6623;52.120;8.660;2023-06-04T08:57:18;22.40;43.20
13115;DHT22;6623;52.120;8.660;2023-06-04T08:59:48;22.50;43.30
13115;DHT22;6623;52.120;8.660;2023-06-04T09:02:14;22.40;43.20
13115;DHT22;6623;52.120;8.660;2023-06-04T09:04:40;22.40;43.20
13115;DHT22;6623;52.120;8.660;2023-06-04T09:07:06;22.40;43.20
13115;DHT22;6623;52.120;8.660;2023-06-04T09:09:37;22.40;43.20
13115;DHT22;6623;52.120;8.660;2023-06-04T09:12:03;22.40;43.20
13115;DHT22;6623;52.120;8.660;2023-06-04T09:14:31;22.40;43.20
13115;DHT22;6623;52.120;8.660;2023-06-04T09:16:57;22.40;43.30
13115;DHT22;6623;52.120;8.660;2023-06-04T09:19:24;22.40;43.20
13115;DHT22;6623;52.120;8.660;2023-06-04T09:21:59;22.40;43.20
13115;DHT22;6623;52.120;8.660;2023-06-04T09:24:43;22.40;43.30
13115;DHT22;6623;52.120;8.660;2023-06-04T09:27:12;22.40;43.30
13115;DHT22;6623;52.120;8.660;2023-06-04T09:29:38;22.40;43.30
13115;DHT22;6623;52.120;8.660;2023-06-04T09:32:04;22.40;43.30
13115;DHT22;6623;52.120;8.660;2023-06-04T09:34:30;22.40;43.30
13115;DHT22;6623;52.120;8.660;2023-06-04T09:36:58;22.50;43.40
13115;DHT22;6623;52.120;8.660;2023-06-04T09:39:24;22.50;43.40
13115;DHT22;6623;52.120;8.660;2023-06-04T09:42:02;22.50;43.40
13115;DHT22;6623;52.120;8.660;2023-06-04T09:44:31;22.40;43.30
13115;DHT22;6623;52.120;8.660;2023-06-04T09:46:57;22.40;43.30
13115;DHT22;6623;52.120;8.660;2023-06-04T09:49:23;22.40;43.40
13115;DHT22;6623;52.120;8.660;2023-06-04T09:51:49;22.50;43.40
13115;DHT22;6623;52.120;8.660;2023-06-04T09:54:15;22.50;43.40
13115;DHT22;6623;52.120;8.660;2023-06-04T09:56:43;22.50;43.40
13115;DHT22;6623;52.120;8.660;2023-06-04T09:59:09;22.50;43.40
13115;DHT22;6623;52.120;8.660;2023-06-04T10:01:39;22.50;43.40
13115;DHT22;6623;52.120;8.660;2023-06-04T10:04:07;22.50;43.40
13115;DHT22;6623;52.120;8.660;2023-06-04T10:06:34;22.50;43.40
13115;DHT22;6623;52.120;8.660;2023-06-04T10:09:08;22.50;43.40
13115;DHT22;6623;52.120;8.660;2023-06-04T10:11:37;22.50;43.40
13115;DHT22;6623;52.120;8.660;2023-06-04T10:14:12;22.50;43.40
13115;DHT22;6623;52.120;8.660;2023-06-04T10:16:41;22.50;43.40
13115;DHT22;6623;52.120;8.660;2023-06-04T10:19:07;22.50;43.40
13115;DHT22;6623;52.120;8.660;2023-06-04T10:21:34;22.50;43.40
13115;DHT22;6623;52.120;8.660;2023-06-04T10:24:00;22.50;43.40
13115;DHT22;6623;52.120;8.660;2023-06-04T10:26:26;22.50;43.40
13115;DHT22;6623;52.120;8.660;2023-06-04T10:28:52;22.50;43.40
13115;DHT22;6623;52.120;8.660;2023-06-04T10:31:18;22.50;43.40
13115;DHT22;6623;52.120;8.660;2023-06-04T10:33:43;22.50;43.40
13115;DHT22;6623;52.120;8.660;2023-06-04T10:36:20;22.50;43.40
13115;DHT22;6623;52.120;8.660;2023-06-04T10:38:50;22.50;43.40
13115;DHT22;6623;52.120;8.660;2023-06-04T10:41:17;22.50;43.30
13115;DHT22;6623;52.120;8.660;2023-06-04T10:43:46;22.50;43.20
13115;DHT22;6623;52.120;8.660;2023-06-04T10:46:15;22.50;43.30
13115;DHT22;6623;52.120;8.660;2023-06-04T10:48:51;22.50;43.10
13115;DHT22;6623;52.120;8.660;2023-06-04T10:51:35;22.50;43.00
13115;DHT22;6623;52.120;8.660;2023-06-04T10:54:03;22.50;43.00
13115;DHT22;6623;52.120;8.660;2023-06-04T10:56:31;22.50;43.10
13115;DHT22;6623;52.120;8.660;2023-06-04T10:59:00;22.40;43.10
13115;DHT22;6623;52.120;8.660;2023-06-04T11:01:26;22.50;43.20
13115;DHT22;6623;52.120;8.660;2023-06-04T11:03:54;22.40;43.10
13115;DHT22;6623;52.120;8.660;2023-06-04T11:06:19;22.50;43.10
13115;DHT22;6623;52.120;8.660;2023-06-04T11:08:46;22.50;43.10
13115;DHT22;6623;52.120;8.660;2023-06-04T11:11:13;22.50;43.10
13115;DHT22;6623;52.120;8.660;2023-06-04T11:13:42;22.50;43.10
13115;DHT22;6623;52.120;8.660;2023-06-04T11:16:15;22.50;43.10
13115;DHT22;6623;52.120;8.660;2023-06-04T11:18:41;22.60;43.10
13115;DHT22;6623;52.120;8.660;2023-06-04T11:21:07;22.50;43.00
13115;DHT22;6623;52.120;8.660;2023-06-04T11:23:33;22.50;43.00
13115;DHT22;6623;52.120;8.660;2023-06-04T11:25:59;22.60;43.10
13115;DHT22;6623;52.120;8.660;2023-06-04T11:28:25;22.60;43.10
13115;DHT22;6623;52.120;8.660;2023-06-04T11:31:00;22.60;43.00
13115;DHT22;6623;52.120;8.660;2023-06-04T11:33:41;22.60;43.00
13115;DHT22;6623;52.120;8.660;2023-06-04T11:36:06;22.60;43.10
13115;DHT22;6623;52.120;8.660;2023-06-04T11:38:32;22.60;43.00
13115;DHT22;6623;52.120;8.660;2023-06-04T11:41:02;22.60;43.00
13115;DHT22;6623;52.120;8.660;2023-06-04T11:43:30;22.60;43.00
13115;DHT22;6623;52.120;8.660;2023-06-04T11:45:57;22.60;43.00
13115;DHT22;6623;52.120;8.660;2023-06-04T11:48:23;22.60;43.00
13115;DHT22;6623;52.120;8.660;2023-06-04T11:50:48;22.60;43.00
13115;DHT22;6623;52.120;8.660;2023-06-04T11:53:14;22.60;43.00
13115;DHT22;6623;52.120;8.660;2023-06-04T11:55:40;22.60;43.00
13115;DHT22;6623;52.120;8.660;2023-06-04T11:58:05;22.60;43.00
13115;DHT22;6623;52.120;8.660;2023-06-04T12:00:31;22.60;43.00
13115;DHT22;6623;52.120;8.660;2023-06-04T12:02:57;22.60;42.90
13115;DHT22;6623;52.120;8.660;2023-06-04T12:05:31;22.60;42.90
13115;DHT22;6623;52.120;8.660;2023-06-04T12:08:08;22.60;42.90
13115;DHT22;6623;52.120;8.660;2023-06-04T12:13:04;22.60;42.90
13115;DHT22;6623;52.120;8.660;2023-06-04T12:15:29;22.60;42.90
13115;DHT22;6623;52.120;8.660;2023-06-04T12:17:55;22.60;42.90
13115;DHT22;6623;52.120;8.660;2023-06-04T12:20:40;22.60;42.90
13115;DHT22;6623;52.120;8.660;2023-06-04T12:23:07;22.60;42.90
13115;DHT22;6623;52.120;8.660;2023-06-04T12:25:34;22.60;42.90
13115;DHT22;6623;52.120;8.660;2023-06-04T12:28:00;22.60;42.90
13115;DHT22;6623;52.120;8.660;2023-06-04T12:30:38;22.60;43.50
13115;DHT22;6623;52.120;8.660;2023-06-04T12:33:04;22.60;42.90
13115;DHT22;6623;52.120;8.660;2023-06-04T12:35:31;22.60;42.90
13115;DHT22;6623;52.120;8.660;2023-06-04T12:37:56;22.60;42.90
13115;DHT22;6623;52.120;8.660;2023-06-04T12:40:22;22.60;42.90
13115;DHT22;6623;52.120;8.660;2023-06-04T12:42:50;22.60;42.90
13115;DHT22;6623;52.120;8.660;2023-06-04T12:45:17;22.60;43.50
13115;DHT22;6623;52.120;8.660;2023-06-04T12:47:42;22.60;42.90
13115;DHT22;6623;52.120;8.660;2023-06-04T12:50:08;22.60;42.90
13115;DHT22;6623;52.120;8.660;2023-06-04T12:52:33;22.60;42.90
13115;DHT22;6623;52.120;8.660;2023-06-04T12:54:59;22.60;42.90
13115;DHT22;6623;52.120;8.660;2023-06-04T12:57:25;22.60;42.90
13115;DHT22;6623;52.120;8.660;2023-06-04T12:59:50;22.70;42.90
13115;DHT22;6623;52.120;8.660;2023-06-04T13:02:16;22.70;42.90
13115;DHT22;6623;52.120;8.660;2023-06-04T13:04:41;22.70;42.90
13115;DHT22;6623;52.120;8.660;2023-06-04T13:07:09;22.70;42.90
13115;DHT22;6623;52.120;8.660;2023-06-04T13:09:35;22.70;42.90
13115;DHT22;6623;52.120;8.660;2023-06-04T13:12:00;22.70;42.90
13115;DHT22;6623;52.120;8.660;2023-06-04T13:14:26;22.70;42.90
13115;DHT22;6623;52.120;8.660;2023-06-04T13:16:51;22.60;42.80
13115;DHT22;6623;52.120;8.660;2023-06-04T13:19:17;22.70;42.90
13115;DHT22;6623;52.120;8.660;2023-06-04T13:21:44;22.60;42.80
13115;DHT22;6623;52.120;8.660;2023-06-04T13:24:10;22.70;42.90
13115;DHT22;6623;52.120;8.660;2023-06-04T13:26:36;22.60;42.80
13115;DHT22;6623;52.120;8.660;2023-06-04T13:29:01;22.70;42.90
13115;DHT22;6623;52.120;8.660;2023-06-04T13:31:27;22.70;42.90
13115;DHT22;6623;52.120;8.660;2023-06-04T13:33:52;22.70;42.90
13115;DHT22;6623;52.120;8.660;2023-06-04T13:36:18;22.60;42.80
13115;DHT22;6623;52.120;8.660;2023-06-04T13:38:43;22.70;42.80
13115;DHT22;6623;52.120;8.660;2023-06-04T13:41:09;22.60;42.80
13115;DHT22;6623;52.120;8.660;2023-06-04T13:43:35;22.70;42.80
13115;DHT22;6623;52.120;8.660;2023-06-04T13:46:00;22.70;42.80
13115;DHT22;6623;52.120;8.660;2023-06-04T13:48:26;22.70;42.80
13115;DHT22;6623;52.120;8.660;2023-06-04T13:50:52;22.70;42.80
13115;DHT22;6623;52.120;8.660;2023-06-04T13:53:17;22.70;42.80
13115;DHT22;6623;52.120;8.660;2023-06-04T13:55:43;22.70;42.80
13115;DHT22;6623;52.120;8.660;2023-06-04T13:58:08;22.70;42.80
13115;DHT22;6623;52.120;8.660;2023-06-04T14:00:34;22.70;42.80
13115;DHT22;6623;52.120;8.660;2023-06-04T14:03:00;22.70;42.80
13115;DHT22;6623;52.120;8.660;2023-06-04T14:05:25;22.70;42.80
13115;DHT22;6623;52.120;8.660;2023-06-04T14:07:53;22.70;42.80
13115;DHT22;6623;52.120;8.660;2023-06-04T14:10:19;22.70;42.80
13115;DHT22;6623;52.120;8.660;2023-06-04T14:12:44;22.70;42.80
13115;DHT22;6623;52.120;8.660;2023-06-04T14:15:10;22.70;42.70
13115;DHT22;6623;52.120;8.660;2023-06-04T14:17:37;22.70;42.70
13115;DHT22;6623;52.120;8.660;2023-06-04T14:20:03;22.70;42.70
13115;DHT22;6623;52.120;8.660;2023-06-04T14:22:39;22.70;42.70
13115;DHT22;6623;52.120;8.660;2023-06-04T14:25:05;22.70;42.70
13115;DHT22;6623;52.120;8.660;2023-06-04T14:27:32;22.70;42.70
13115;DHT22;6623;52.120;8.660;2023-06-04T14:29:58;22.70;42.70
13115;DHT22;6623;52.120;8.660;2023-06-04T14:32:23;22.70;42.70
13115;DHT22;6623;52.120;8.660;2023-06-04T14:34:49;22.70;42.70
13115;DHT22;6623;52.120;8.660;2023-06-04T14:37:15;22.70;42.70
13115;DHT22;6623;52.120;8.660;2023-06-04T14:39:40;22.70;42.70
13115;DHT22;6623;52.120;8.660;2023-06-04T14:42:06;22.70;42.70
13115;DHT22;6623;52.120;8.660;2023-06-04T14:44:31;22.70;42.70
13115;DHT22;6623;52.120;8.660;2023-06-04T14:46:58;22.70;42.70
13115;DHT22;6623;52.120;8.660;2023-06-04T14:49:25;22.70;42.70
13115;DHT22;6623;52.120;8.660;2023-06-04T14:51:50;22.70;42.70
13115;DHT22;6623;52.120;8.660;2023-06-04T14:54:16;22.70;42.70
13115;DHT22;6623;52.120;8.660;2023-06-04T14:56:42;22.70;42.70
13115;DHT22;6623;52.120;8.660;2023-06-04T14:59:07;22.70;42.70
13115;DHT22;6623;52.120;8.660;2023-06-04T15:01:36;22.70;42.70
13115;DHT22;6623;52.120;8.660;2023-06-04T15:04:03;22.70;42.70
13115;DHT22;6623;52.120;8.660;2023-06-04T15:06:29;22.70;42.60
13115;DHT22;6623;52.120;8.660;2023-06-04T15:08:55;22.70;42.60
13115;DHT22;6623;52.120;8.660;2023-06-04T15:11:21;22.70;42.60
13115;DHT22;6623;52.120;8.660;2023-06-04T15:13:46;22.70;42.60
13115;DHT22;6623;52.120;8.660;2023-06-04T15:16:12;22.70;42.60
13115;DHT22;6623;52.120;8.660;2023-06-04T15:18:38;22.70;42.60
13115;DHT22;6623;52.120;8.660;2023-06-04T15:21:03;22.70;42.60
13115;DHT22;6623;52.120;8.660;2023-06-04T15:23:29;22.70;42.60
13115;DHT22;6623;52.120;8.660;2023-06-04T15:25:54;22.70;42.60
13115;DHT22;6623;52.120;8.660;2023-06-04T15:28:20;22.70;42.60
13115;DHT22;6623;52.120;8.660;2023-06-04T15:30:46;22.70;42.60
13115;DHT22;6623;52.120;8.660;2023-06-04T15:33:11;22.70;42.60
13115;DHT22;6623;52.120;8.660;2023-06-04T15:35:37;22.70;42.60
13115;DHT22;6623;52.120;8.660;2023-06-04T15:38:02;22.70;42.60
13115;DHT22;6623;52.120;8.660;2023-06-04T15:40:28;22.70;42.60
13115;DHT22;6623;52.120;8.660;2023-06-04T15:42:53;22.70;42.50
13115;DHT22;6623;52.120;8.660;2023-06-04T15:45:19;22.70;42.50
13115;DHT22;6623;52.120;8.660;2023-06-04T15:47:50;22.70;42.50